Time;durP1;ratioP1;P1;durP2;ratioP2;P2;SDS_P1;SDS_P2;PMS_P1;PMS_P2;Temp;Humidity;BMP_temperature;BMP_pressure;BME280_temperature;BME280_humidity;BME280_pressure;Samples;Min_cycle;Max_cycle;Signal;HPM_P1;HPM_P2
2023/04/02 00:02:26;;;;;;;17.82;8.88;;;;;;;6.66;87.61;99271.84;1873175;76;27490;-39
2023/04/02 00:05:20;;;;;;;14.58;8.40;;;;;;;6.63;87.79;99267.08;1830309;77;25500;-39
2023/04/02 00:07:51;;;;;;;16.20;8.88;;;;;;;6.61;88.04;99276.56;1787425;79;25779;-38
2023/04/02 00:10:41;;;;;;;18.23;8.93;;;;;;;6.61;88.21;99275.22;1853450;76;25433;-38
2023/04/02 00:13:15;;;;;;;18.05;10.78;;;;;;;6.60;88.33;99287.84;1836186;76;25554;-38
2023/04/02 00:15:45;;;;;;;14.20;8.30;;;;;;;6.59;88.34;99292.98;1862953;76;28568;-38
2023/04/02 00:18:19;;;;;;;18.10;9.78;;;;;;;6.58;88.53;99290.05;1873420;76;25596;-38
2023/04/02 00:21:01;;;;;;;15.38;8.55;;;;;;;6.59;88.57;99299.70;1760507;79;25703;-38
2023/04/02 00:23:29;;;;;;;15.13;9.13;;;;;;;6.59;88.54;99296.20;1849561;76;25663;-39
2023/04/02 00:25:57;;;;;;;14.28;8.28;;;;;;;6.57;88.48;99298.41;1853162;76;25465;-39
2023/04/02 00:28:26;;;;;;;15.63;8.60;;;;;;;6.56;88.52;99303.00;1873661;76;27486;-39
2023/04/02 00:30:57;;;;;;;16.20;9.13;;;;;;;6.54;88.50;99305.98;1793726;79;25679;-39
2023/04/02 00:33:29;;;;;;;13.32;8.05;;;;;;;6.53;88.57;99309.77;1856144;76;25407;-38
2023/04/02 00:35:56;;;;;;;14.03;8.33;;;;;;;6.50;88.46;99306.90;1839305;76;25505;-40
2023/04/02 00:38:27;;;;;;;12.37;8.60;;;;;;;6.48;88.37;99307.75;1830333;76;25456;-38
2023/04/02 00:40:58;;;;;;;13.58;8.58;;;;;;;6.46;88.36;99314.77;1848961;76;27482;-37
2023/04/02 00:43:29;;;;;;;15.55;9.48;;;;;;;6.43;88.42;99305.98;1848033;76;25836;-38
2023/04/02 00:46:00;;;;;;;17.70;10.32;;;;;;;6.45;88.41;99314.55;1851280;76;25522;-38
2023/04/02 00:48:38;;;;;;;15.18;10.05;;;;;;;6.44;88.44;99313.51;1861168;76;25905;-37
2023/04/02 00:51:47;;;;;;;15.60;9.53;;;;;;;6.43;88.48;99317.28;1861749;76;25798;-39
2023/04/02 00:54:19;;;;;;;14.20;9.30;;;;;;;6.42;88.46;99318.37;1872414;76;27607;-38
2023/04/02 00:56:51;;;;;;;13.55;9.00;;;;;;;6.41;88.62;99322.95;1874648;76;25395;-38
2023/04/02 00:59:32;;;;;;;14.18;9.20;;;;;;;6.42;88.64;99325.08;1804266;79;25556;-39
2023/04/02 01:02:21;;;;;;;10.25;7.78;;;;;;;6.41;88.64;99326.98;1855358;75;25619;-39
2023/04/02 01:05:04;;;;;;;;;;;;;;;6.43;88.56;99330.71;1865477;76;25556;-39
2023/04/02 01:07:52;;;;;;;12.28;7.85;;;;;;;6.42;88.41;99332.61;1847775;76;28748;-40
2023/04/02 01:10:29;;;;;;;10.45;7.22;;;;;;;6.40;88.28;99341.50;1789441;79;26232;-37
2023/04/02 01:13:23;;;;;;;12.15;8.20;;;;;;;6.40;88.31;99343.41;1819146;77;25537;-38
2023/04/02 01:15:56;;;;;;;10.25;7.25;;;;;;;6.40;88.16;99344.75;1734547;82;25642;-37
2023/04/02 01:18:49;;;;;;;11.35;7.75;;;;;;;6.39;87.99;99344.52;1713245;82;25753;-38
2023/04/02 01:21:32;;;;;;;9.80;7.20;;;;;;;6.40;88.04;99342.06;1738469;81;27370;-37
2023/04/02 01:24:10;;;;;;;12.95;7.42;;;;;;;6.41;88.13;99346.34;1679706;83;25527;-40
2023/04/02 01:26:56;;;;;;;12.00;7.55;;;;;;;6.41;88.01;99347.13;1665739;83;25841;-40
2023/04/02 01:29:39;;;;;;;11.68;7.03;;;;;;;6.40;87.83;99342.84;1658310;84;26535;-39
2023/04/02 01:32:10;;;;;;;11.18;7.40;;;;;;;6.40;87.93;99354.94;1651414;84;25894;-37
2023/04/02 01:34:39;;;;;;;10.35;6.92;;;;;;;6.38;87.92;99354.45;1668141;83;27656;-40
2023/04/02 01:37:27;;;;;;;10.88;7.17;;;;;;;6.38;87.84;99355.80;1676916;83;25663;-37
2023/04/02 01:40:19;;;;;;;10.93;7.37;;;;;;;6.40;87.76;99360.86;1663365;84;25881;-38
2023/04/02 01:43:17;;;;;;;9.00;6.67;;;;;;;6.37;87.74;99356.91;1664462;84;25561;-39
2023/04/02 01:45:45;;;;;;;7.87;6.08;;;;;;;6.39;87.75;99360.08;1667792;81;25621;-39
2023/04/02 01:48:18;;;;;;;8.38;6.45;;;;;;;6.36;87.57;99361.47;1707412;82;27362;-39
2023/04/02 01:50:50;;;;;;;9.23;7.10;;;;;;;6.36;87.49;99366.84;1788652;79;25502;-39
2023/04/02 01:53:20;;;;;;;8.95;6.37;;;;;;;6.36;87.38;99367.39;1803362;78;26392;-39
2023/04/02 01:55:55;;;;;;;10.18;7.12;;;;;;;6.33;87.46;99368.81;1807059;78;25751;-38
2023/04/02 01:58:27;;;;;;;9.35;7.10;;;;;;;6.34;87.36;99369.03;1801111;78;25480;-39
2023/04/02 02:01:05;;;;;;;10.68;6.85;;;;;;;6.34;87.40;99374.41;1825421;76;27828;-39
2023/04/02 02:03:34;;;;;;;10.18;7.25;;;;;;;6.31;87.42;99372.88;1836126;76;25840;-37
2023/04/02 02:06:02;;;;;;;10.78;7.87;;;;;;;6.31;87.41;99375.56;1873679;76;25599;-38
2023/04/02 02:08:39;;;;;;;10.28;7.37;;;;;;;6.27;87.34;99387.47;1822149;77;26262;-38
2023/04/02 02:11:10;;;;;;;9.28;7.00;;;;;;;6.25;87.43;99386.98;1863174;76;25552;-38
2023/04/02 02:13:40;;;;;;;10.95;6.97;;;;;;;6.23;87.42;99387.83;1870762;76;27475;-37
2023/04/02 02:16:11;;;;;;;11.75;7.47;;;;;;;6.21;87.58;99390.00;1877929;76;25379;-38
2023/04/02 02:18:38;;;;;;;8.68;7.35;;;;;;;6.21;87.57;99402.64;1874732;76;25422;-39
2023/04/02 02:21:09;;;;;;;11.73;7.78;;;;;;;6.16;87.45;99403.01;1784806;79;25883;-39
2023/04/02 02:23:37;;;;;;;11.50;8.08;;;;;;;6.14;87.34;99406.52;1861039;76;25516;-39
2023/04/02 02:26:06;;;;;;;9.88;7.33;;;;;;;6.11;87.47;99413.04;1800650;79;28241;-39
2023/04/02 02:28:37;;;;;;;9.55;7.37;;;;;;;6.07;87.37;99412.85;1849841;75;25724;-39
2023/04/02 02:31:19;;;;;;;11.00;7.40;;;;;;;6.06;87.62;99403.75;1843082;76;25413;-39
2023/04/02 02:33:54;;;;;;;12.82;8.48;;;;;;;6.04;87.82;99409.41;1866179;76;25869;-39
2023/04/02 02:36:51;;;;;;;12.45;8.43;;;;;;;6.04;87.96;99408.08;1872509;76;25662;-38
2023/04/02 02:39:41;;;;;;;10.88;7.40;;;;;;;6.04;87.89;99411.31;1844458;76;27493;-38
2023/04/02 02:42:31;;;;;;;11.05;7.03;;;;;;;6.00;87.80;99417.05;1848422;76;25441;-39
2023/04/02 02:45:02;;;;;;;9.83;7.45;;;;;;;5.97;87.70;99419.77;1844375;76;25795;-39
2023/04/02 02:47:33;;;;;;;10.53;7.35;;;;;;;5.95;87.75;99426.75;1853892;76;26197;-39
2023/04/02 02:50:09;;;;;;;9.63;6.95;;;;;;;5.93;87.68;99420.89;1836044;76;25830;-39
2023/04/02 02:52:39;;;;;;;9.03;6.35;;;;;;;5.93;87.58;99428.16;1839864;76;27477;-39
2023/04/02 02:55:11;;;;;;;;;;;;;;;5.91;87.67;99428.45;1866010;76;25785;-39
2023/04/02 02:57:58;;;;;;;8.58;6.30;;;;;;;5.90;87.67;99426.84;1806650;76;25542;-39
2023/04/02 03:00:26;;;;;;;9.45;7.30;;;;;;;5.89;87.76;99429.30;1843058;75;25597;-39
2023/04/02 03:02:56;;;;;;;12.13;6.62;;;;;;;5.86;87.62;99433.92;1859512;76;25781;-39
2023/04/02 03:05:26;;;;;;;10.55;7.25;;;;;;;5.84;87.57;99432.61;1862666;76;28169;-39
2023/04/02 03:07:56;;;;;;;9.25;7.15;;;;;;;5.83;87.52;99435.85;1857684;76;25748;-39
2023/04/02 03:10:37;;;;;;;9.93;6.78;;;;;;;5.83;87.53;99438.53;1803823;78;25388;-40
2023/04/02 03:13:31;;;;;;;10.68;7.12;;;;;;;5.80;87.41;99435.09;1774895;79;25707;-37
2023/04/02 03:16:29;;;;;;;8.68;7.10;;;;;;;5.77;87.38;99437.03;1868733;76;25505;-38
2023/04/02 03:19:22;;;;;;;10.67;8.37;;;;;;;5.75;87.54;99448.06;1871501;76;28511;-39
2023/04/02 03:22:01;;;;;;;9.38;7.15;;;;;;;5.75;87.69;99444.03;1861174;76;26162;-38
2023/04/02 03:24:34;;;;;;;9.73;7.28;;;;;;;5.77;87.76;99449.11;1847121;76;25387;-38
2023/04/02 03:27:21;;;;;;;9.28;6.75;;;;;;;5.76;87.64;99454.23;1846836;75;26852;-38
2023/04/02 03:30:17;;;;;;;8.78;6.65;;;;;;;5.76;87.52;99463.08;1875226;76;25772;-38
2023/04/02 03:32:47;;;;;;;10.00;6.85;;;;;;;5.75;87.55;99462.81;1824200;77;28095;-38
2023/04/02 03:35:29;;;;;;;9.98;7.28;;;;;;;5.77;87.63;99463.86;1772053;79;25586;-39
2023/04/02 03:38:04;;;;;;;8.75;6.28;;;;;;;5.79;87.67;99471.88;1868674;76;25539;-38
2023/04/02 03:40:41;;;;;;;10.08;7.08;;;;;;;5.80;87.65;99469.98;1839025;76;25580;-39
2023/04/02 03:43:24;;;;;;;9.18;6.85;;;;;;;5.80;87.65;99478.03;1801233;79;25799;-42
2023/04/02 03:46:00;;;;;;;7.80;6.58;;;;;;;5.79;87.55;99481.27;1793955;79;28265;-37
2023/04/02 03:48:38;;;;;;;10.03;6.53;;;;;;;5.83;87.58;99490.87;1835861;76;25763;-39
2023/04/02 03:51:13;;;;;;;10.55;6.70;;;;;;;5.83;87.48;99490.08;1846355;76;25834;-39
2023/04/02 03:53:43;;;;;;;10.88;7.20;;;;;;;5.79;87.53;99496.03;1875182;76;25831;-39
2023/04/02 03:56:28;;;;;;;11.63;7.35;;;;;;;5.78;87.47;99499.80;1876101;76;25842;-38
2023/04/02 03:59:03;;;;;;;12.10;8.43;;;;;;;5.75;87.38;99500.94;1861148;76;27421;-38
2023/04/02 04:01:38;;;;;;;11.83;8.20;;;;;;;5.71;87.37;99504.77;1795712;79;25417;-38
2023/04/02 04:04:10;;;;;;;14.00;8.55;;;;;;;5.67;87.29;99508.32;1860721;76;25784;-37
2023/04/02 04:06:41;;;;;;;9.55;7.35;;;;;;;5.65;87.37;99509.17;1856707;76;25505;-37
2023/04/02 04:09:25;;;;;;;9.90;7.97;;;;;;;5.64;87.57;99515.09;1850153;75;25800;-38
2023/04/02 04:12:16;;;;;;;14.15;8.68;;;;;;;5.65;87.60;99519.91;1807606;76;27670;-39
2023/04/02 04:14:54;;;;;;;11.65;8.35;;;;;;;5.64;87.54;99521.01;1846871;76;25403;-38
2023/04/02 04:17:50;;;;;;;11.83;8.45;;;;;;;5.61;87.57;99525.06;1857749;76;25795;-38
2023/04/02 04:20:28;;;;;;;14.45;9.50;;;;;;;5.61;87.63;99529.09;1842489;76;26717;-38
2023/04/02 04:23:24;;;;;;;15.08;9.43;;;;;;;5.58;87.61;99528.33;1862050;76;25427;-38
2023/04/02 04:26:08;;;;;;;15.72;10.28;;;;;;;5.58;87.72;99539.06;1852826;76;27469;-37
2023/04/02 04:28:40;;;;;;;15.28;9.48;;;;;;;5.57;87.69;99541.52;1867390;76;25646;-38
2023/04/02 04:31:29;;;;;;;17.35;11.00;;;;;;;5.56;87.74;99533.20;1858033;76;25653;-39
2023/04/02 04:34:02;;;;;;;14.95;10.25;;;;;;;5.55;87.81;99545.83;1850378;76;25566;-39
2023/04/02 04:36:35;;;;;;;16.07;10.40;;;;;;;5.52;87.57;99550.43;1869982;76;25850;-39
2023/04/02 04:39:09;;;;;;;16.70;10.32;;;;;;;5.49;87.41;99550.22;1827122;77;27171;-39
2023/04/02 04:41:39;;;;;;;16.42;10.60;;;;;;;5.49;87.60;99552.35;1844301;76;26886;-39
2023/04/02 04:44:36;;;;;;;18.23;11.68;;;;;;;5.49;87.70;99560.40;1842617;76;25458;-39
2023/04/02 04:47:26;;;;;;;17.27;11.88;;;;;;;5.49;87.54;99567.10;1875358;76;25871;-39
2023/04/02 04:50:16;;;;;;;17.15;11.93;;;;;;;5.47;87.44;99561.80;1859516;76;25453;-38
2023/04/02 04:52:45;;;;;;;19.27;12.13;;;;;;;5.43;87.35;99566.92;1866427;76;28469;-39
2023/04/02 04:55:38;;;;;;;18.98;12.15;;;;;;;5.38;87.27;99564.31;1874858;76;25449;-38
2023/04/02 04:58:38;;;;;;;21.82;13.10;;;;;;;5.37;87.25;99574.81;1860425;76;25777;-38
2023/04/02 05:01:53;;;;;;;20.52;14.10;;;;;;;5.34;87.18;99578.86;1867476;76;26241;-37
2023/04/02 05:04:36;;;;;;;21.77;13.40;;;;;;;5.28;87.14;99581.37;1854692;76;25776;-37
2023/04/02 05:07:31;;;;;;;20.90;13.30;;;;;;;5.23;87.32;99576.88;1862495;75;27463;-36
2023/04/02 05:10:34;;;;;;;23.50;14.58;;;;;;;5.20;87.39;99584.16;1867351;76;25356;-37
2023/04/02 05:13:06;;;;;;;23.27;15.28;;;;;;;5.21;87.57;99591.13;1719300;82;25791;-39
2023/04/02 05:16:01;;;;;;;26.40;15.05;;;;;;;5.22;87.75;99595.38;1740962;81;26689;-39
2023/04/02 05:18:52;;;;;;;28.55;15.63;;;;;;;5.19;87.50;99602.69;1742211;81;25456;-39
2023/04/02 05:21:39;;;;;;;25.68;14.95;;;;;;;5.13;87.30;99613.22;1740765;82;28493;-39
2023/04/02 05:24:30;;;;;;;25.25;15.18;;;;;;;5.11;87.25;99615.39;1741858;81;25654;-37
2023/04/02 05:27:06;;;;;;;27.30;16.95;;;;;;;5.08;87.13;99618.65;1721999;81;25684;-39
2023/04/02 05:29:37;;;;;;;26.60;15.45;;;;;;;5.03;86.99;99620.06;1743317;81;25665;-38
2023/04/02 05:32:24;;;;;;;26.70;15.55;;;;;;;5.01;87.07;99625.70;1726421;81;25678;-38
2023/04/02 05:34:55;;;;;;;26.93;14.65;;;;;;;5.03;87.29;99621.39;1731569;81;27503;-38
2023/04/02 05:37:27;;;;;;;23.35;13.18;;;;;;;5.00;87.14;99624.09;1723981;81;25521;-38
2023/04/02 05:40:05;;;;;;;26.35;13.62;;;;;;;5.00;87.13;99621.41;1735821;81;25447;-38
2023/04/02 05:42:35;;;;;;;24.05;11.93;;;;;;;4.97;86.94;99626.03;1743398;81;26670;-38
2023/04/02 05:45:07;;;;;;;22.17;13.10;;;;;;;4.96;86.91;99633.81;1713476;82;25907;-38
2023/04/02 05:47:39;;;;;;;21.95;11.45;;;;;;;4.93;86.87;99643.75;1790201;76;27602;-37
2023/04/02 05:50:10;;;;;;;24.27;12.50;;;;;;;4.91;86.89;99647.83;1815158;76;25702;-38
2023/04/02 05:52:42;;;;;;;21.15;11.80;;;;;;;4.92;87.05;99654.24;1871194;76;25627;-38
2023/04/02 05:55:20;;;;;;;19.77;11.65;;;;;;;4.90;86.96;99655.05;1872118;76;25625;-39
2023/04/02 05:57:59;;;;;;;25.52;12.05;;;;;;;4.89;87.04;99658.83;1848489;76;25702;-39
2023/04/02 06:00:40;;;;;;;21.25;10.78;;;;;;;4.91;87.08;99664.69;1863413;76;27871;-37
2023/04/02 06:03:19;;;;;;;20.43;11.40;;;;;;;4.88;87.00;99663.13;1790882;79;25865;-38
2023/04/02 06:05:46;;;;;;;22.15;10.23;;;;;;;4.88;87.00;99668.48;1856875;76;25383;-37
2023/04/02 06:08:35;;;;;;;19.50;11.35;;;;;;;4.84;86.71;99662.91;1868093;76;25557;-39
2023/04/02 06:11:20;;;;;;;19.85;10.82;;;;;;;4.81;86.79;99677.66;1862857;75;25415;-38
2023/04/02 06:13:47;;;;;;;20.88;12.13;;;;;;;4.77;86.85;99675.86;1834490;76;27514;-38
2023/04/02 06:16:15;;;;;;;21.02;10.93;;;;;;;4.76;87.00;99685.75;1874303;76;25672;-38
2023/04/02 06:18:44;;;;;;;20.82;11.53;;;;;;;4.77;86.97;99694.06;1870169;76;25442;-38
2023/04/02 06:21:15;;;;;;;13.15;7.72;;;;;;;4.76;87.13;99689.77;1859814;76;26058;-39
2023/04/02 06:23:58;;;;;;;20.00;10.82;;;;;;;4.74;87.12;99689.27;1862625;76;25410;-39
2023/04/02 06:26:31;;;;;;;20.92;11.40;;;;;;;4.70;87.05;99693.61;1864773;76;27387;-38
2023/04/02 06:29:38;;;;;;;18.07;11.03;;;;;;;4.70;87.30;99698.97;1799615;79;26390;-37
2023/04/02 06:32:10;;;;;;;16.67;10.08;;;;;;;4.69;87.38;99700.03;1862802;76;25525;-38
2023/04/02 06:34:40;;;;;;;16.37;9.33;;;;;;;4.68;87.58;99711.83;1850667;76;25740;-37
2023/04/02 06:37:31;;;;;;;15.30;9.20;;;;;;;4.73;87.99;99717.13;1872414;76;25571;-38
2023/04/02 06:40:03;;;;;;;15.68;8.80;;;;;;;4.76;87.97;99717.12;1874313;76;27462;-38
2023/04/02 06:42:35;;;;;;;14.50;8.70;;;;;;;4.80;88.06;99724.83;1836079;76;25342;-38
2023/04/02 06:45:09;;;;;;;14.60;8.23;;;;;;;4.81;88.12;99723.77;1853850;76;25868;-38
2023/04/02 06:47:45;;;;;;;17.37;8.75;;;;;;;4.84;88.14;99723.20;1861926;76;25557;-38
2023/04/02 06:50:22;;;;;;;17.95;9.78;;;;;;;4.90;88.42;99730.63;1828893;76;25578;-38
2023/04/02 06:52:57;;;;;;;14.90;9.20;;;;;;;4.96;88.24;99730.84;1862630;76;27728;-38
2023/04/02 06:56:06;;;;;;;18.50;9.73;;;;;;;4.96;88.19;99722.80;1874780;76;25350;-38
2023/04/02 06:58:34;;;;;;;16.42;9.78;;;;;;;4.97;88.24;99724.39;1790913;79;25384;-38
2023/04/02 07:01:02;;;;;;;16.73;9.98;;;;;;;4.96;87.65;99730.84;1804644;79;25507;-39
2023/04/02 07:03:32;;;;;;;14.45;9.55;;;;;;;4.93;87.56;99732.20;1854240;75;25675;-38
2023/04/02 07:06:01;;;;;;;18.10;9.25;;;;;;;4.92;87.85;99735.98;1849050;76;27637;-38
2023/04/02 07:08:29;;;;;;;15.35;9.10;;;;;;;4.91;87.88;99739.73;1874684;76;26221;-38
2023/04/02 07:10:57;;;;;;;19.07;9.98;;;;;;;4.92;88.10;99735.98;1877993;76;25382;-38
2023/04/02 07:13:24;;;;;;;17.42;9.43;;;;;;;4.89;87.68;99743.77;1785669;79;25543;-38
2023/04/02 07:15:54;;;;;;;15.32;8.68;;;;;;;4.84;87.34;99751.34;1869077;76;25456;-39
2023/04/02 07:18:29;;;;;;;14.18;8.95;;;;;;;4.79;87.11;99757.54;1856548;76;27459;-39
2023/04/02 07:20:57;;;;;;;12.45;7.50;;;;;;;4.77;87.30;99759.70;1834312;76;25777;-39
2023/04/02 07:23:26;;;;;;;15.15;8.15;;;;;;;4.76;87.30;99759.44;1840903;76;25641;-39
2023/04/02 07:25:55;;;;;;;12.43;7.17;;;;;;;4.76;87.21;99765.34;1875942;76;26059;-39
2023/04/02 07:28:23;;;;;;;;;;;;;;;4.76;87.02;99782.77;1853030;76;25795;-38
2023/04/02 07:30:51;;;;;;;11.63;7.50;;;;;;;4.73;86.52;99780.64;1874652;76;27535;-38
2023/04/02 07:33:26;;;;;;;11.85;7.78;;;;;;;4.67;86.23;99785.26;1834569;77;25619;-38
2023/04/02 07:35:56;;;;;;;10.35;6.78;;;;;;;4.63;86.33;99782.86;1865546;76;25694;-38
2023/04/02 07:38:25;;;;;;;10.05;6.53;;;;;;;4.65;86.21;99784.20;1857946;76;26600;-38
2023/04/02 07:40:53;;;;;;;9.10;6.12;;;;;;;4.70;86.78;99795.41;1801068;78;25820;-38
2023/04/02 07:43:20;;;;;;;11.10;6.28;;;;;;;4.79;86.23;99794.27;1857786;76;28597;-39
2023/04/02 07:45:50;;;;;;;10.08;5.72;;;;;;;4.82;86.35;99793.16;1875702;76;25697;-38
2023/04/02 07:48:18;;;;;;;8.75;5.67;;;;;;;4.85;86.24;99788.58;1817901;76;25810;-38
2023/04/02 07:50:45;;;;;;;8.60;5.97;;;;;;;4.94;86.26;99795.97;1845845;76;26220;-38
2023/04/02 07:53:28;;;;;;;8.28;5.25;;;;;;;4.97;85.47;99802.11;1842281;76;25422;-39
2023/04/02 07:56:00;;;;;;;8.50;5.28;;;;;;;4.95;84.83;99811.77;1856966;76;27015;-38
2023/04/02 07:58:29;;;;;;;6.90;4.58;;;;;;;4.90;84.26;99803.78;1853548;76;25802;-39
2023/04/02 08:00:59;;;;;;;7.42;5.00;;;;;;;4.90;84.32;99813.72;1865306;76;25427;-39
2023/04/02 08:03:26;;;;;;;8.35;4.60;;;;;;;4.92;84.53;99814.23;1842629;76;25602;-39
2023/04/02 08:05:56;;;;;;;8.30;5.37;;;;;;;4.92;84.25;99821.74;1874001;76;25403;-39
2023/04/02 08:08:25;;;;;;;9.98;5.30;;;;;;;4.91;83.91;99813.44;1865910;76;27464;-38
2023/04/02 08:10:51;;;;;;;8.33;5.53;;;;;;;4.91;83.86;99820.14;1848998;76;25775;-38
2023/04/02 08:13:18;;;;;;;6.87;4.33;;;;;;;4.91;83.68;99818.00;1865873;76;25402;-40
2023/04/02 08:15:45;;;;;;;8.98;5.22;;;;;;;4.89;83.69;99818.28;1849510;76;25545;-42
2023/04/02 08:18:13;;;;;;;6.90;4.90;;;;;;;4.93;84.12;99820.64;1872895;76;25430;-40
2023/04/02 08:20:41;;;;;;;7.15;5.12;;;;;;;5.01;84.03;99823.27;1791789;79;27278;-39
2023/04/02 08:23:16;;;;;;;8.85;5.10;;;;;;;5.03;84.09;99824.56;1831535;76;25767;-38
2023/04/02 08:25:45;;;;;;;8.75;5.50;;;;;;;5.10;84.13;99832.83;1854039;76;25488;-39
2023/04/02 08:28:13;;;;;;;8.45;4.37;;;;;;;5.14;83.93;99841.37;1842648;75;26157;-40
2023/04/02 08:30:40;;;;;;;8.93;5.17;;;;;;;5.14;83.36;99856.12;1842638;76;25671;-41
2023/04/02 08:33:06;;;;;;;7.22;4.87;;;;;;;5.11;83.20;99852.66;1849305;75;28145;-39
2023/04/02 08:35:34;;;;;;;9.60;5.60;;;;;;;5.11;83.15;99849.16;1858247;76;25553;-40
2023/04/02 08:38:01;;;;;;;7.70;5.35;;;;;;;5.09;82.84;99845.97;1790445;79;25611;-38
2023/04/02 08:40:38;;;;;;;7.90;5.33;;;;;;;5.08;82.80;99842.49;1808799;77;27709;-39
2023/04/02 08:43:42;;;;;;;11.30;6.20;;;;;;;5.09;82.92;99853.48;1856722;76;25770;-38
2023/04/02 08:46:29;;;;;;;9.05;5.87;;;;;;;5.10;82.94;99853.73;1860445;75;28275;-38
2023/04/02 08:49:05;;;;;;;8.93;5.40;;;;;;;5.11;82.99;99855.86;1875607;76;25778;-38
2023/04/02 08:51:35;;;;;;;7.10;5.15;;;;;;;5.13;82.88;99855.84;1867325;76;25425;-38
2023/04/02 08:54:22;;;;;;;8.28;5.30;;;;;;;5.16;82.94;99861.17;1830607;76;25482;-39
2023/04/02 08:57:09;;;;;;;9.15;5.10;;;;;;;5.19;82.88;99870.81;1859066;76;25378;-38
2023/04/02 08:59:42;;;;;;;8.10;4.95;;;;;;;5.21;82.72;99882.57;1819046;76;28584;-39
2023/04/02 09:02:29;;;;;;;8.40;4.95;;;;;;;5.18;82.38;99887.19;1865412;76;25442;-39
2023/04/02 09:05:00;;;;;;;9.75;5.30;;;;;;;5.15;82.34;99889.88;1855068;76;25889;-38
2023/04/02 09:07:28;;;;;;;8.05;5.35;;;;;;;5.16;82.41;99894.69;1854793;76;25618;-39
2023/04/02 09:09:57;;;;;;;7.33;5.28;;;;;;;5.15;82.35;99896.58;1874476;76;25609;-40
2023/04/02 09:12:30;;;;;;;8.40;4.97;;;;;;;5.17;82.45;99905.68;1794841;79;28168;-38
2023/04/02 09:15:06;;;;;;;6.10;4.37;;;;;;;5.17;82.34;99907.81;1835875;77;25591;-38
2023/04/02 09:17:34;;;;;;;6.75;4.62;;;;;;;5.14;82.10;99915.10;1875512;76;25682;-38
2023/04/02 09:20:18;;;;;;;5.97;4.10;;;;;;;5.10;82.06;99911.37;1861291;76;25485;-39
2023/04/02 09:22:50;;;;;;;6.92;4.30;;;;;;;5.12;82.22;99905.17;1774639;79;25546;-39
2023/04/02 09:25:29;;;;;;;7.17;4.60;;;;;;;5.14;82.13;99914.28;1863007;76;27438;-39
2023/04/02 09:28:03;;;;;;;7.12;4.65;;;;;;;5.14;82.11;99924.48;1855748;76;25589;-39
2023/04/02 09:30:53;;;;;;;6.72;4.70;;;;;;;5.16;81.91;99921.50;1853594;76;25692;-39
2023/04/02 09:33:43;;;;;;;8.23;5.15;;;;;;;5.12;82.22;99925.28;1784962;79;25507;-39
2023/04/02 09:36:36;;;;;;;6.60;4.70;;;;;;;5.16;82.31;99929.02;1844198;76;25577;-39
2023/04/02 09:39:19;;;;;;;7.80;4.72;;;;;;;5.17;82.38;99923.11;1852130;76;27485;-40
2023/04/02 09:41:48;;;;;;;6.12;4.60;;;;;;;5.20;82.47;99917.98;1841689;76;25838;-39
2023/04/02 09:44:24;;;;;;;6.42;4.15;;;;;;;5.23;82.64;99913.40;1740406;75;25760;-39
2023/04/02 09:47:05;;;;;;;8.85;4.25;;;;;;;5.26;82.49;99918.75;1718992;81;26257;-39
2023/04/02 09:49:33;;;;;;;6.22;4.00;;;;;;;5.28;82.67;99920.61;1719001;81;25889;-39
2023/04/02 09:52:20;;;;;;;6.40;3.80;;;;;;;5.29;82.46;99920.84;1741598;81;28150;-38
2023/04/02 09:55:05;;;;;;;5.30;3.58;;;;;;;5.28;82.08;99924.63;1719756;81;26454;-39
2023/04/02 09:57:32;;;;;;;5.17;3.47;;;;;;;5.26;82.16;99934.02;1735333;81;25680;-38
2023/04/02 10:00:27;;;;;;;5.67;3.70;;;;;;;5.25;81.98;99934.57;1734490;81;25817;-39
2023/04/02 10:03:19;;;;;;;7.08;3.72;;;;;;;5.22;82.18;99942.63;1736999;81;25683;-39
2023/04/02 10:05:47;;;;;;;5.37;3.95;;;;;;;5.24;82.31;99945.03;1738486;81;29797;-39
2023/04/02 10:08:28;;;;;;;6.50;4.65;;;;;;;5.26;82.52;99950.94;1742755;81;25897;-39
2023/04/02 10:10:59;;;;;;;6.30;4.40;;;;;;;5.32;82.69;99959.73;1742260;81;25862;-39
2023/04/02 10:13:53;;;;;;;5.80;4.45;;;;;;;5.38;82.72;99950.53;1740871;81;25681;-39
2023/04/02 10:16:25;;;;;;;5.87;3.87;;;;;;;5.41;82.36;99954.00;1735036;81;25892;-39
2023/04/02 10:19:01;;;;;;;6.53;4.50;;;;;;;5.42;82.13;99962.31;1708123;83;27536;-40
2023/04/02 10:21:35;;;;;;;6.10;4.47;;;;;;;5.46;81.97;99968.70;1702405;82;25771;-39
2023/04/02 10:24:01;;;;;;;6.70;4.37;;;;;;;5.43;81.67;99971.95;1691864;83;25570;-38
2023/04/02 10:26:49;;;;;;;6.87;4.08;;;;;;;5.37;81.57;99979.80;1731566;81;25906;-39
2023/04/02 10:29:32;;;;;;;6.58;4.35;;;;;;;5.35;81.78;99985.44;1729581;81;26126;-40
2023/04/02 10:32:21;;;;;;;7.45;4.70;;;;;;;5.34;81.75;99990.53;1740024;80;27517;-39
2023/04/02 10:35:10;;;;;;;8.50;5.00;;;;;;;5.29;81.57;99991.13;1758961;80;25899;-40
2023/04/02 10:37:46;;;;;;;;;;;;;;;5.24;81.67;99990.61;1768346;80;25431;-40
2023/04/02 10:40:36;;;;;;;8.10;5.10;;;;;;;5.22;81.86;99996.25;1730872;80;25727;-40
2023/04/02 10:43:44;;;;;;;8.23;5.12;;;;;;;5.23;82.17;99996.53;1767240;80;25564;-39
2023/04/02 10:46:28;;;;;;;6.80;5.20;;;;;;;5.27;82.31;99998.66;1763000;80;28349;-38
2023/04/02 10:49:32;;;;;;;10.13;5.90;;;;;;;5.30;82.58;100004.26;1754162;80;25787;-39
2023/04/02 10:52:20;;;;;;;10.03;6.25;;;;;;;5.36;82.61;100015.22;1732429;81;25473;-40
2023/04/02 10:54:54;;;;;;;8.85;4.97;;;;;;;5.34;82.04;100019.24;1736024;81;26237;-39
2023/04/02 10:57:37;;;;;;;9.93;6.05;;;;;;;5.30;81.90;100014.19;1748367;81;25773;-39
2023/04/02 11:00:18;;;;;;;11.03;7.28;;;;;;;5.22;81.69;100019.05;1737440;81;27484;-40
2023/04/02 11:03:10;;;;;;;12.95;7.72;;;;;;;5.16;81.92;100024.73;1718335;81;26349;-40
2023/04/02 11:05:50;;;;;;;10.78;6.62;;;;;;;5.12;81.99;100028.51;1748884;80;25828;-40
2023/04/02 11:08:22;;;;;;;12.80;7.72;;;;;;;5.12;82.15;100033.08;1753862;80;25579;-38
2023/04/02 11:11:11;;;;;;;12.98;7.78;;;;;;;5.09;82.19;100036.31;1729336;81;25428;-39
2023/04/02 11:14:11;;;;;;;13.20;8.35;;;;;;;5.08;82.34;100039.54;1752879;80;27477;-39
2023/04/02 11:16:39;;;;;;;14.13;8.20;;;;;;;5.04;82.30;100042.53;1742103;81;27413;-39
2023/04/02 11:19:19;;;;;;;14.05;8.50;;;;;;;5.02;82.40;100052.19;1770753;80;25770;-38
2023/04/02 11:21:54;;;;;;;16.77;8.85;;;;;;;5.00;82.55;100054.31;1759511;80;25696;-41
2023/04/02 11:24:44;;;;;;;12.98;8.83;;;;;;;4.96;82.50;100058.64;1763116;80;25844;-38
2023/04/02 11:27:15;;;;;;;14.28;7.62;;;;;;;4.94;82.60;100070.19;1767452;80;27565;-38
2023/04/02 11:30:25;;;;;;;12.35;8.05;;;;;;;4.91;82.72;100066.72;1769552;80;26071;-38
2023/04/02 11:32:55;;;;;;;11.90;8.05;;;;;;;4.92;82.90;100073.69;1758897;80;25557;-38
2023/04/02 11:35:35;;;;;;;14.35;9.05;;;;;;;4.96;83.21;100072.05;1752196;80;26247;-39
2023/04/02 11:38:13;;;;;;;13.95;8.53;;;;;;;4.95;83.15;100073.11;1756843;80;25879;-40
2023/04/02 11:40:53;;;;;;;12.13;7.28;;;;;;;4.98;83.75;100078.47;1753065;81;28094;-39
2023/04/02 11:43:40;;;;;;;11.60;7.28;;;;;;;4.98;83.69;100079.27;1752321;81;25816;-39
2023/04/02 11:46:28;;;;;;;14.93;7.62;;;;;;;4.99;84.17;100086.79;1747791;81;25816;-40
2023/04/02 11:49:35;;;;;;;13.70;7.20;;;;;;;5.00;84.72;100091.84;1730634;81;25614;-39
2023/04/02 11:52:03;;;;;;;13.98;8.80;;;;;;;5.02;84.69;100092.39;1742619;81;25850;-39
2023/04/02 11:54:35;;;;;;;12.47;7.70;;;;;;;4.97;84.30;100091.08;1741231;81;27552;-39
2023/04/02 11:57:27;;;;;;;12.80;8.10;;;;;;;4.97;84.64;100098.30;1739132;81;25904;-39
2023/04/02 12:00:20;;;;;;;15.13;8.35;;;;;;;4.91;84.96;100096.20;1746747;81;25714;-39
2023/04/02 12:03:28;;;;;;;13.00;8.20;;;;;;;4.92;85.12;100102.34;1746009;81;25683;-39
2023/04/02 12:06:07;;;;;;;13.33;8.30;;;;;;;4.88;85.34;100103.98;1735574;81;25475;-40
2023/04/02 12:08:50;;;;;;;13.68;8.15;;;;;;;4.84;85.44;100115.25;1733887;81;27517;-40
2023/04/02 12:11:16;;;;;;;13.48;7.70;;;;;;;4.78;85.40;100112.87;1732404;81;26558;-38
2023/04/02 12:13:49;;;;;;;13.28;7.55;;;;;;;4.80;85.64;100125.45;1733220;81;25478;-40
2023/04/02 12:16:17;;;;;;;9.88;7.95;;;;;;;4.77;85.84;100122.00;1735790;80;25820;-40
2023/04/02 12:18:53;;;;;;;11.95;7.92;;;;;;;4.76;85.66;100134.58;1727975;81;25847;-41
2023/04/02 12:21:25;;;;;;;14.47;8.88;;;;;;;4.76;85.76;100135.13;1730584;81;27495;-40
2023/04/02 12:23:58;;;;;;;13.10;7.60;;;;;;;4.79;86.04;100139.39;1734230;81;25696;-39
2023/04/02 12:26:41;;;;;;;10.55;8.05;;;;;;;4.80;85.91;100136.99;1739176;81;25868;-39